Flight Track Log - Related Links

Times and Time Zones

All times are in EDT time to prevent confusion due to time zone crossing. See the EGF3678 flight status page for this flight to view local times or setup timezone preferences in your user account.

Time Position Orientation Groundspeed Altitude Reporting Facility
EDT Latitude Longitude Course Direction KTS MPH feet Rate Location/Type
Mon 12:09:30 PM 42.0000 -87.8500 77° East 171 197 2,500  Level Chicago TRACON
Mon 12:10:16 PM 42.0122 -87.7975 73° East 190 219 3,700 1,833 Climbing Chicago Center
Mon 12:11:00 PM 42.0387 -87.4459 79° East  Level FlightAware Approximate
Mon 12:11:18 PM 42.0192 -87.7028 84° East 232 267 5,800  Level Chicago Center
Mon 12:12:00 PM 42.0615 -87.2921 78° East  Level FlightAware Approximate
Mon 12:12:20 PM 42.0328 -87.6089 79° East 254 292 8,900  Level Chicago Center
Mon 12:13:00 PM 42.0853 -87.1385 77° East  Level FlightAware Approximate
Mon 12:14:00 PM 42.1081 -86.9850 77° East  Level FlightAware Approximate
Mon 12:14:00 PM 42.0505 -87.3635 78° East  Level FlightAware Approximate
Mon 12:14:24 PM 42.0656 -87.3831 78° East 291 335 13,400  Level Chicago Center
Mon 12:15:26 PM 42.0836 -87.2622 79° East 323 372 15,300 1,694 Climbing Chicago Center
Mon 12:16:28 PM 42.1014 -87.1367 79° East 340 391 16,900 1,694 Climbing Chicago Center
Mon 12:17:30 PM 42.1156 -87.0058 82° East 350 403 18,800 1,790 Climbing Chicago Center
Mon 12:18:32 PM 42.1192 -86.8714 88° East 359 413 20,600 1,331 Climbing Chicago Center
Mon 12:20:00 PM 42.1173 -86.6515 91° East  Level FlightAware Approximate
Mon 12:21:38 PM 42.1339 -86.4311 90° East 394 453 24,300  Level Chicago Center
Mon 12:22:40 PM 42.1400 -86.2492 87° East 405 466 25,600 1,306 Climbing Chicago Center
Mon 12:23:42 PM 42.1444 -86.0975 88° East 407 468 27,000 1,016 Climbing Chicago Center
Mon 12:24:44 PM 42.1428 -85.9533 91° East 414 476 27,700 581 Climbing Chicago Center
Mon 12:25:46 PM 42.1408 -85.7928 91° East 429 494 28,200 532 Climbing Chicago Center
Mon 12:26:48 PM 42.1397 -85.5925 90° East 448 516 28,800 532 Climbing Chicago Center
Mon 12:27:00 PM 42.1334 -85.6034 90° East  Level FlightAware Approximate
Mon 12:27:50 PM 42.1372 -85.4194 91° East 461 531 29,300  Level Chicago Center
Mon 12:28:52 PM 42.1361 -85.2442 90° East 469 540 30,200 919 Climbing Chicago Center
Mon 12:29:54 PM 42.1344 -85.0675 91° East 473 544 31,200 1,306 Climbing Chicago Center
Mon 12:30:56 PM 42.1322 -84.8981 91° East 459 528 32,900 1,935 Climbing Chicago Center
Mon 12:31:58 PM 42.1294 -84.7106 91° East 431 496 35,200 1,452 Climbing Chicago Center
Mon 12:33:00 PM 42.1203 -84.5625 95° East 408 470 35,900 407 Climbing Chicago Center
Mon 12:34:40 PM 42.1056 -84.3197 95° East 401 461 36,300 338 Climbing Cleveland Center
Mon 12:35:40 PM 42.0900 -84.1508 97° East 411 473 36,800 350 Climbing Cleveland Center
Mon 12:36:40 PM 42.0781 -83.9936 96° East 411 473 37,000 100 Climbing Cleveland Center
Mon 12:37:40 PM 42.0661 -83.8306 96° East 423 487 37,000  Level Cleveland Center
Mon 12:39:12 PM 42.0531 -83.5761 94° East 455 524 37,000  Level Chicago Center
Mon 12:40:15 PM 42.0408 -83.4031 95° East 465 535 37,000  Level Chicago Center
Mon 12:41:41 PM 42.0167 -83.1517 97° East 478 550 37,000  Level Cleveland Center
Mon 12:42:40 PM 42.0058 -82.9753 95° East 483 556 37,000  Level Cleveland Center
Mon 12:43:41 PM 41.9928 -82.7986 96° East 483 556 37,000  Level Cleveland Center
Mon 12:44:40 PM 41.9772 -82.6250 97° East 483 556 37,000  Level Cleveland Center
Mon 12:45:41 PM 41.9656 -82.4486 95° East 477 549 37,000  Level Cleveland Center
Mon 12:47:00 PM 41.9358 -82.2509 96° East  Level FlightAware Approximate
Mon 12:47:40 PM 41.9372 -82.1072 96° East 461 531 37,000  Level Cleveland Center
Mon 12:48:40 PM 41.9228 -81.9339 96° East 461 531 37,000  Level Cleveland Center
Mon 12:50:00 PM 41.9027 -81.7318 98° East  Level FlightAware Approximate
Mon 12:50:40 PM 41.8931 -81.5844 98° East 463 533 37,000  Level Cleveland Center
Mon 12:51:40 PM 41.8736 -81.3947 98° East 469 540 37,000  Level Cleveland Center
Mon 12:53:00 PM 41.8479 -81.1938 97° East  Level FlightAware Approximate
Mon 12:53:40 PM 41.8444 -81.0514 97° East 463 533 37,000  Level Cleveland Center
Mon 12:54:40 PM 41.8261 -80.8786 98° East 463 533 37,000  Level Cleveland Center
Mon 12:55:40 PM 41.8097 -80.7003 97° East 468 539 37,000  Level Cleveland Center
Mon 12:56:40 PM 41.7953 -80.5303 96° East 468 539 37,000  Level Cleveland Center
Mon 12:57:40 PM 41.7764 -80.3575 98° East 468 539 37,000  Level Cleveland Center
Mon 12:58:40 PM 41.7614 -80.1989 97° East 468 539 37,000  Level Cleveland Center
Mon 12:59:40 PM 41.7419 -80.0267 99° East 463 533 37,000  Level Cleveland Center
Mon 01:00:40 PM 41.7264 -79.8542 97° East 462 532 37,000  Level Cleveland Center
Mon 01:01:40 PM 41.7064 -79.6819 99° East 467 537 37,000  Level Cleveland Center
Mon 01:02:40 PM 41.6881 -79.4961 97° East 462 532 37,000  Level Cleveland Center
Mon 01:05:00 PM 41.6468 -79.1451 99° East  Level FlightAware Approximate
Mon 01:05:40 PM 41.6319 -78.9747 99° East 467 537 37,000  Level Cleveland Center
Mon 01:06:40 PM 41.6106 -78.8003 99° East 467 537 37,000  Level Cleveland Center
Mon 01:07:40 PM 41.5911 -78.6258 98° East 467 537 37,000 -679 Level Cleveland Center
Mon 01:09:28 PM 41.5542 -78.3228 99° East 492 566 35,100 -1,491 Descending New York Center
Mon 01:10:29 PM 41.5339 -78.1486 99° East 486 559 32,800 -2,033 Descending New York Center
Mon 01:11:29 PM 41.5114 -77.9714 100° East 481 554 31,000 -603 Descending New York Center
Mon 01:13:28 PM 41.4600 -77.6086 101° East 492 566 31,000  Level New York Center
Mon 01:14:27 PM 41.4347 -77.4261 100° East 492 566 31,000 -1,193 Level New York Center
Mon 01:16:29 PM 41.3811 -77.0725 101° East 492 566 27,400 -1,785 Descending New York Center
Mon 01:18:00 PM 41.3463 -76.8492 102° East  Level FlightAware Approximate
Mon 01:18:29 PM 41.3222 -76.7242 102° East 487 560 23,800  Level New York Center
Mon 01:19:27 PM 41.2781 -76.5631 110° East 474 545 22,500 -1,361 Descending New York Center
Mon 01:20:28 PM 41.2339 -76.3992 110° East 467 537 21,100 -1,537 Descending New York Center
Mon 01:21:28 PM 41.1933 -76.2442 109° East 457 526 19,400 -1,989 Descending New York Center
Mon 01:23:29 PM 41.1183 -75.9625 109° East 426 490 15,100 -2,145 Descending New York Center
Mon 01:24:27 PM 41.0750 -75.8081 110° East 418 481 13,000 -708 Descending New York Center
Mon 01:26:27 PM 40.9992 -75.5272 110° East 413 475 13,000 -100 Level New York Center
Mon 01:27:27 PM 40.9644 -75.4011 110° East 384 442 12,700 -744 Descending New York Center
Mon 01:28:28 PM 40.9278 -75.2781 111° Southeast 367 422 11,500 -1,082 Descending New York Center
Mon 01:29:29 PM 40.9000 -75.1800 111° Southeast 332 382 10,500 -1,091 Descending New York Center
Mon 01:30:29 PM 40.8683 -75.0792 113° Southeast 308 354 9,300 -1,220 Descending New York Center
Mon 01:31:27 PM 40.8000 -75.0722 176° South 209 241 8,100 -610 Descending New York Center
Mon 01:32:27 PM 40.7994 -75.1461 269° West 171 197 8,100 -50 Level New York Center
Mon 01:33:28 PM 40.8425 -75.2203 308° West 205 236 8,000 -99 Descending New York Center
Mon 01:34:28 PM 40.8903 -75.2753 319° Northwest 232 267 7,900 -248 Descending New York Center
Mon 01:35:29 PM 40.9322 -75.2122 49° Northeast 177 204 7,500 -397 Descending New York Center
Mon 01:36:29 PM 40.8986 -75.1058 113° Southeast 205 236 7,100 -254 Descending New York Center
Mon 01:37:27 PM 40.8664 -75.0214 117° Southeast 233 268 7,000  Descending New York Center
Mon 01:38:27 PM 40.8378 -74.9483 117° Southeast 239 275 7,100 50 Climbing New York Center
Mon 01:39:28 PM 40.7964 -74.8828 130° Southeast 226 260 7,100 -246 Level New York Center
Mon 01:40:29 PM 40.7503 -74.8278 138° Southeast 226 260 6,600 -496 Descending New York Center
Mon 01:41:29 PM 40.7019 -74.7758 141° Southeast 226 260 6,100 -248 Descending New York Center
Mon 01:42:30 PM 40.7089 -74.6994 83° East 196 226 6,100  Level New York Center
Mon 01:43:28 PM 40.7650 -74.6342 41° Northeast 209 241 6,100  Level New York Center
Mon 01:44:13 PM 40.8000 -74.5833 48° Northeast 262 302 6,100 -229 Level New York TRACON
Mon 01:45:13 PM 40.8833 -74.5667 North 258 297 5,700 -450 Descending New York TRACON
Mon 01:46:13 PM 40.9500 -74.5333 21° North 253 291 5,200 -316 Descending New York TRACON
Mon 01:47:07 PM 41.0000 -74.5167 14° North 250 288 5,100 -50 Descending New York TRACON
Mon 01:48:13 PM 41.0667 -74.4833 21° North 230 265 5,100  Level New York TRACON
Mon 01:49:13 PM 41.1333 -74.4500 21° North 236 272 5,100  Level New York TRACON
Mon 01:50:13 PM 41.1500 -74.3833 72° East 227 261 5,100  Level New York TRACON
Mon 01:51:13 PM 41.1333 -74.3167 108° East 211 243 5,100  Level New York TRACON
Mon 01:52:13 PM 41.0833 -74.2667 143° Southeast 204 235 5,100  Level New York TRACON
Mon 01:53:13 PM 41.0500 -74.2167 131° Southeast 198 228 5,100 -250 Level New York TRACON
Mon 01:54:13 PM 41.0000 -74.1833 153° Southeast 195 224 4,600 -500 Descending New York TRACON
Mon 01:55:13 PM 40.9500 -74.1500 153° Southeast 191 220 4,100 -650 Descending New York TRACON
Mon 01:56:13 PM 40.9000 -74.1167 153° Southeast 192 221 3,300 -800 Descending New York TRACON

Login

Don't have an account? Register now (free) for customized features, flight alerts, and more!